23 maja 2022

Czas Kod Pogoda Temp. Widoczność Chmury Wiatr METAR/SPECI
19:00
V
21 °C 10 km+ 9.600 ft 280°   280° 11 kt METAR LFBE 231700Z AUTO 28011KT 240V300 9999 SCT039 SCT068 BKN096 21/13 Q1010 NOSIG
18:30
V
21 °C 10 km+ 3.900 ft 250°   250° 11 kt METAR LFBE 231630Z AUTO 25011KT 9999 BKN039 BKN048 BKN054 21/13 Q1010 NOSIG
18:00
V
21 °C 10 km+ 9.800 ft 270°   270° 13 kt METAR LFBE 231600Z AUTO 27013KT 9999 FEW041 SCT070 OVC098 21/13 Q1010 NOSIG
17:30
V
21 °C 10 km+ 4.800 ft 260°   260° 14 kt METAR LFBE 231530Z AUTO 26014KT 9999 SCT040 BKN048 BKN098 21/13 Q1010 NOSIG
17:00
V
22 °C 10 km+ 9.600 ft 270°   270° 15 kt METAR LFBE 231500Z AUTO 27015KT 9999 FEW043 SCT050 OVC096 22/12 Q1010 NOSIG
16:30
V
22 °C 10 km+ 9.200 ft 280°   280° 14 kt METAR LFBE 231430Z AUTO 28014KT 9999 FEW043 SCT056 BKN092 22/12 Q1010 NOSIG
16:00
V
21 °C 10 km+ 4.100 ft 270°   270° 13 kt METAR LFBE 231400Z AUTO 27013KT 9999 BKN041 BKN049 OVC056 21/12 Q1010 NOSIG
15:30
V
21 °C 10 km+ 4.100 ft 280°   280° 10 kt METAR LFBE 231330Z AUTO 28010KT 9999 BKN041 BKN049 OVC056 21/13 Q1010 NOSIG
15:00
V
22 °C 10 km+ 5.400 ft 270°   270° 12 kt METAR LFBE 231300Z AUTO 27012KT 9999 SCT035 OVC054 22/13 Q1010 NOSIG
14:30
V
22 °C 10 km+ 3.300 ft 260°   260° 9 kt METAR LFBE 231230Z AUTO 26009KT 220V300 9999 BKN033 BKN045 BKN056 22/15 Q1010 NOSIG
14:00
V
21 °C 10 km+ 4.900 ft 270°   270° 10 kt METAR LFBE 231200Z AUTO 27010KT 240V300 9999 FEW029 SCT038 OVC049 21/15 Q1010 NOSIG
13:30
V
19 °C 10 km+ 3.900 ft 260°   260° 10 kt METAR LFBE 231130Z AUTO 26010KT 230V290 9999 SCT028 SCT033 OVC039 19/13 Q1010 NOSIG
13:00
V
19 °C 10 km+ 3.000 ft 260°   260° 12 kt METAR LFBE 231100Z AUTO 26012KT 9999 BKN030 OVC038 19/14 Q1010 TEMPO 4000 SHRA BKN010 BKN030TCU
12:30
V
20 °C 10 km+ 3.400 ft 260°   260° 12 kt METAR LFBE 231030Z AUTO 26012KT 9999 SCT028 BKN034 BKN052 20/13 Q1010 TEMPO 4000 SHRA BKN010 BKN030TCU
12:00
V
19 °C 10 km+ 5.000 ft 270°   270° 14 kt METAR LFBE 231000Z AUTO 27014KT 9999 FEW026 SCT031 OVC050 19/13 Q1010 TEMPO 4000 SHRA BKN010 BKN030TCU
11:30
M
18 °C 10 km+ 2.600 ft 260°   260° 12 kt METAR LFBE 230930Z AUTO 26012KT 9999 BKN026 OVC047 18/13 Q1010 TEMPO 4000 SHRA BKN010 BKN030TCU
11:00
M
19 °C 10 km+ 2.800 ft 250°   250° 11 kt METAR LFBE 230900Z AUTO 25011KT 210V280 9999 BKN028 BKN035 OVC044 19/14 Q1009 TEMPO 4000 SHRA BKN010 BKN030TCU
10:30
M
18 °C 10 km+ 2.500 ft 260°   260° 12 kt METAR LFBE 230830Z AUTO 26012KT 9999 FEW018 BKN025 OVC044 18/14 Q1009 TEMPO 4000 SHRA BKN010 BKN030TCU
10:00
M
18 °C 10 km+ 2.000 ft 250°   250° 10 kt METAR LFBE 230800Z AUTO 25010KT 9999 BKN020 OVC026 18/15 Q1009 TEMPO 4000 SHRA BKN010 BKN030TCU
09:30
M
17 °C 10 km+ 1.500 ft 250°   250° 9 kt METAR LFBE 230730Z AUTO 25009KT 9999 BKN015 OVC023 17/15 Q1009 TEMPO 4000 SHRA BKN010 BKN030TCU
09:00
M
17 °C 10 km+ 1.500 ft 220°   220° 8 kt METAR LFBE 230700Z AUTO 22008KT 9999 OVC015 17/15 Q1009 TEMPO 4000 SHRA BKN010 BKN030TCU
08:30
M
17 °C 10 km+ 1.400 ft 210°   210° 8 kt METAR LFBE 230630Z AUTO 21008KT 9999 BKN014 OVC019 17/15 Q1009 TEMPO 4000 SHRA BKN010 BKN030TCU
08:00
M
17 °C 10 km+ 1.900 ft 220°   220° 6 kt METAR LFBE 230600Z AUTO 22006KT 180V240 9999 OVC019 17/15 Q1008 TEMPO 4000 SHRA BKN010 BKN030TCU
07:30
M
17 °C 10 km+ 1.600 ft 220°   220° 6 kt METAR LFBE 230530Z AUTO 22006KT 9999 BKN016/// OVC022/// //////CB 17/16 Q1008 TEMPO 4000 SHRA BKN010 BKN030TCU
07:00
M
17 °C 10 km+ 1.900 ft 230°   230° 7 kt METAR LFBE 230500Z AUTO 23007KT 9999 SCT010/// OVC019/// //////CB 17/16 Q1008 TEMPO 4000 SHRA OVC006 BKN030TCU
06:30
M
17 °C 10 km+ 1.600 ft 240°   240° 7 kt METAR LFBE 230430Z AUTO 24007KT 9999 OVC016/// ///CB 17/16 Q1008 TEMPO 4000 SHRA OVC006 BKN030TCU
06:00
I
17 °C 4,9 km 1.900 ft 240°   240° 8 kt METAR LFBE 230400Z AUTO 24008KT 200V270 4900 RA BR BKN019/// OVC026/// //////CB 17/15 Q1009 TEMPO TSRA OVC006 BKN030TCU
05:30
M
18 °C 10 km+ 1.600 ft 250°   250° 10 kt METAR LFBE 230330Z AUTO 25010KT 9999 VCTS BKN016/// OVC021/// //////CB 18/15 Q1008 TEMPO 3000 TSRA OVC006 BKN030TCU
05:00
M
18 °C 10 km+ 1.700 ft 250°   250° 10 kt METAR LFBE 230300Z AUTO 25010KT 9999 BKN017 OVC025 18/15 Q1008 TEMPO 3000 TSRA BKN030CB
04:30
M
18 °C 10 km+ 1.700 ft 220°   220° 7 kt METAR LFBE 230230Z AUTO 22007KT 190V250 9999 BKN017 OVC023 18/15 Q1008 TEMPO 3000 TSRA BKN030CB
04:00
V
18 °C 10 km+ 24.000 ft 220°   220° 5 kt METAR LFBE 230200Z AUTO 22005KT 190V250 9999 FEW022 BKN240 18/15 Q1008 TEMPO 3000 TSRA BKN030CB
03:30
V
18 °C 10 km+ - 200°   200° 4 kt METAR LFBE 230130Z AUTO 20004KT CAVOK 18/15 Q1008 TEMPO 3000 TSRA BKN030CB
03:00
V
19 °C 10 km+ 21.000 ft 230°   230° 6 kt METAR LFBE 230100Z AUTO 23006KT 200V260 9999 SCT021/// BKN210/// OVC240/// ///TCU 19/15 Q1009 TEMPO 3000 TSRA BKN030CB
02:30
M
19 °C 10 km+ 2.300 ft 240°   240° 10 kt METAR LFBE 230030Z AUTO 24010KT 9999 BKN023 BKN220 19/15 Q1009 TEMPO 3000 TSRA BKN030CB
02:00
V
19 °C 10 km+ - 220°   220° 7 kt METAR LFBE 230000Z AUTO 22007KT CAVOK 19/15 Q1009 TEMPO 3000 TSRA BKN030CB
01:30
V
20 °C 10 km+ - 260°   260° 6 kt METAR LFBE 222330Z AUTO 26006KT CAVOK 20/15 Q1008
01:00
V
20 °C 10 km+ - 280°   280° 9 kt METAR LFBE 222300Z AUTO 28009KT CAVOK 20/15 Q1008
00:30
V
21 °C 10 km+ - 270°   270° 16 27 kt METAR LFBE 222230Z AUTO 27016G27KT 9999 ///TCU 21/16 Q1008
00:00
V
23 °C 10 km+ - 260°   260° 17 kt METAR LFBE 222200Z AUTO 26017KT CAVOK 23/17 Q1008

22 maja 2022

Czas Kod Pogoda Temp. Widoczność Chmury Wiatr METAR/SPECI
23:30
V
26 °C 10 km+ - 280°   280° 13 kt METAR LFBE 222130Z AUTO 28013KT CAVOK 26/16 Q1006
23:00
V
26 °C 10 km+ - 260°   260° 8 kt METAR LFBE 222100Z AUTO 26008KT CAVOK 26/14 Q1006 TEMPO 4000 -RA OVC006
22:30
V
27 °C 10 km+ - 230°   230° 5 kt METAR LFBE 222030Z AUTO 23005KT 200V310 CAVOK 27/15 Q1006 TEMPO 4000 -RA OVC006
22:00
V
27 °C 10 km+ - 230°   230° 6 kt METAR LFBE 222000Z AUTO 23006KT 170V260 CAVOK 27/18 Q1006 TEMPO VRB20G40KT 4000 -RA BKN070CB
21:30
V
27 °C 10 km+ - 220°   220° 9 kt METAR LFBE 221930Z AUTO 22009KT 190V250 CAVOK 27/20 Q1006 TEMPO VRB20G40KT 4000 -RA BKN070CB
21:00
V
27 °C 10 km+ - 160°   160° 4 kt METAR LFBE 221900Z AUTO 16004KT CAVOK 27/20 Q1005 TEMPO VRB20G40KT 4000 TSRAGR BKN070CB
20:30
V
28 °C 10 km+ - 240°   240° 5 kt METAR LFBE 221830Z AUTO 24005KT 180V280 CAVOK 28/20 Q1006 TEMPO VRB20G40KT 4000 TSRAGR BKN070CB
20:00
V
28 °C 10 km+ - 280°   280° 5 kt METAR LFBE 221800Z AUTO 28005KT 250V310 9999 //////TCU 28/20 Q1006 TEMPO VRB20G40KT 4000 TSRAGR BKN070CB
19:30
V
29 °C 10 km+ - Var   Var 1 kt METAR LFBE 221730Z AUTO VRB01KT CAVOK 29/20 Q1005 TEMPO VRB20G40KT 4000 TSRAGR BKN070CB
19:00
V
30 °C 10 km+ - 160°   160° 5 kt METAR LFBE 221700Z AUTO 16005KT 130V200 CAVOK 30/20 Q1005 TEMPO VRB20G40KT 4000 TSRAGR BKN070CB
18:30
V
31 °C 10 km+ - Var   Var 3 kt METAR LFBE 221630Z AUTO VRB03KT 9999 //////TCU 31/22 Q1005 TEMPO VRB20G40KT 4000 TSRAGR BKN070CB
18:00
V
30 °C 10 km+ - 100°   100° 5 kt METAR LFBE 221600Z AUTO 10005KT 070V140 CAVOK 30/22 Q1005 TEMPO VRB20G40KT 4000 TSRAGR BKN070CB
17:30
V
30 °C 10 km+ - Var   Var 2 kt METAR LFBE 221530Z AUTO VRB02KT CAVOK 30/21 Q1006 TEMPO VRB20G40KT 4000 TSRAGR BKN070CB
17:00
V
30 °C 10 km+ - 140°   140° 6 kt METAR LFBE 221500Z AUTO 14006KT 110V170 CAVOK 30/21 Q1006 TEMPO VRB20G40KT 4000 TSRAGR BKN070CB
16:30
V
31 °C 10 km+ - 130°   130° 5 kt METAR LFBE 221430Z AUTO 13005KT 090V170 CAVOK 31/20 Q1007 TEMPO VRB20G40KT 4000 TSRAGR BKN070CB
16:00
V
31 °C 10 km+ - 150°   150° 6 kt METAR LFBE 221400Z AUTO 15006KT 120V190 CAVOK 31/21 Q1007 NOSIG
15:30
V
32 °C 10 km+ - 190°   190° 6 kt METAR LFBE 221330Z AUTO 19006KT 090V260 CAVOK 32/21 Q1008 NOSIG
15:00
V
32 °C 10 km+ - 130°   130° 6 kt METAR LFBE 221300Z AUTO 13006KT 090V180 CAVOK 32/21 Q1008 NOSIG
14:30
V
31 °C 10 km+ - 150°   150° 6 kt METAR LFBE 221230Z AUTO 15006KT 080V190 CAVOK 31/20 Q1008 NOSIG
14:00
V
30 °C 10 km+ - 170°   170° 5 kt METAR LFBE 221200Z AUTO 17005KT 130V210 CAVOK 30/20 Q1009 NOSIG
13:30
V
30 °C 10 km+ - Var   Var 5 kt METAR LFBE 221130Z AUTO VRB05KT CAVOK 30/21 Q1009 NOSIG
13:00
V
30 °C 10 km+ - Var   Var 3 kt METAR LFBE 221100Z AUTO VRB03KT CAVOK 30/21 Q1009 NOSIG
12:30
V
29 °C 10 km+ - 200°   200° 6 kt METAR LFBE 221030Z AUTO 20006KT 170V230 CAVOK 29/20 Q1010 NOSIG
12:00
V
28 °C 10 km+ - 190°   190° 6 kt METAR LFBE 221000Z AUTO 19006KT CAVOK 28/20 Q1010 BECMG 13010KT
11:30
V
27 °C 10 km+ - 100°   100° 7 kt METAR LFBE 220930Z AUTO 10007KT 060V150 CAVOK 27/19 Q1009 NOSIG
11:00
V
26 °C 10 km+ - 120°   120° 8 kt METAR LFBE 220900Z AUTO 12008KT CAVOK 26/19 Q1010 NOSIG
10:30
V
27 °C 10 km+ - 130°   130° 5 kt METAR LFBE 220830Z AUTO 13005KT 080V170 CAVOK 27/20 Q1011 NOSIG
10:00
V
26 °C 10 km+ - 140°   140° 4 kt METAR LFBE 220800Z AUTO 14004KT 070V210 CAVOK 26/20 Q1012 NOSIG
09:30
V
24 °C 10 km+ - 130°   130° 5 kt METAR LFBE 220730Z AUTO 13005KT 090V160 CAVOK 24/19 Q1011 NOSIG
09:00
V
22 °C 10 km+ - 100°   100° 3 kt METAR LFBE 220700Z AUTO 10003KT 070V150 CAVOK 22/22 Q1011 NOSIG
08:30
M
20 °C 5 km - 050°   050° 1 kt METAR LFBE 220630Z AUTO 05001KT 5000 BR NSC 20/19 Q1012 BECMG 13010KT
08:00
M
19 °C 7 km - 080°   080° 3 kt METAR LFBE 220600Z AUTO 08003KT 7000 NSC 19/18 Q1012 NOSIG
07:30
M
18 °C 6 km - Var   Var 3 kt METAR LFBE 220530Z AUTO VRB03KT 6000 NSC 18/18 Q1012 NOSIG
07:00
M
18 °C 5 km - Var   Var 2 kt METAR LFBE 220500Z AUTO VRB02KT 5000 BR NSC 18/17 Q1012 NOSIG
06:30
I
18 °C 4,1 km - 070°   070° 3 kt METAR LFBE 220430Z AUTO 07003KT 4100 BR NSC 18/17 Q1012 BECMG 9999 NSW
06:00
M
18 °C 6 km - 090°   090° 3 kt METAR LFBE 220400Z AUTO 09003KT 070V130 6000 NSC 18/17 Q1012 NOSIG
05:30
M
18 °C 7 km - 030°   030° 2 kt METAR LFBE 220330Z AUTO 03002KT 7000 NSC 18/17 Q1012 NOSIG
05:00
V
18 °C 8 km - 090°   090° 4 kt METAR LFBE 220300Z AUTO 09004KT 8000 NSC 18/17 Q1012 NOSIG
04:30
M
17 °C 7 km - Var   Var 2 kt METAR LFBE 220230Z AUTO VRB02KT 7000 NSC 17/16 Q1012 NOSIG
04:00
M
17 °C 5 km - 130°   130° 1 kt METAR LFBE 220200Z AUTO 13001KT 5000 BR NSC 17/16 Q1012 NOSIG
03:30
M
18 °C 6 km - Var   Var 3 kt METAR LFBE 220130Z AUTO VRB03KT 6000 NSC 18/17 Q1013 NOSIG
03:00
I
18 °C 2,3 km - 080°   080° 2 kt METAR LFBE 220100Z AUTO 08002KT 6000 2300 NSC 18/18 Q1013 NOSIG
02:30
M
18 °C 7 km - 060°   060° 3 kt METAR LFBE 220030Z AUTO 06003KT 7000 NSC 18/17 Q1013 NOSIG
02:00
M
19 °C 6 km - 070°   070° 3 kt METAR LFBE 220000Z AUTO 07003KT 6000 NSC 19/18 Q1013 NOSIG
01:30
M
19 °C 7 km - 070°   070° 2 kt METAR LFBE 212330Z AUTO 07002KT 7000 NSC 19/18 Q1013
01:00
V
19 °C 9 km - Var   Var 2 kt METAR LFBE 212300Z AUTO VRB02KT 9000 NSC 19/19 Q1013
00:30
V
20 °C 10 km+ - Var   Var 2 kt METAR LFBE 212230Z AUTO VRB02KT CAVOK 20/19 Q1014
00:00
V
20 °C 10 km+ - 090°   090° 3 kt METAR LFBE 212200Z AUTO 09003KT CAVOK 20/19 Q1014

21 maja 2022

Czas Kod Pogoda Temp. Widoczność Chmury Wiatr METAR/SPECI
23:30
V
21 °C 10 km+ - Var   Var 3 kt METAR LFBE 212130Z AUTO VRB03KT CAVOK 21/20 Q1014
23:00
V
21 °C 10 km+ - Var   Var 3 kt METAR LFBE 212100Z AUTO VRB03KT CAVOK 21/19 Q1014
22:30
V
22 °C 10 km+ - Var   Var 2 kt METAR LFBE 212030Z AUTO VRB02KT CAVOK 22/20 Q1014
22:00
V
23 °C 10 km+ - Var   Var 2 kt METAR LFBE 212000Z AUTO VRB02KT CAVOK 23/20 Q1014 NOSIG
21:30
V
24 °C 10 km+ - Var   Var 2 kt METAR LFBE 211930Z AUTO VRB02KT CAVOK 24/20 Q1014 NOSIG
21:00
V
25 °C 10 km+ - 110°   110° 1 kt METAR LFBE 211900Z AUTO 11001KT CAVOK 25/21 Q1014 NOSIG
20:30
V
27 °C 10 km+ - Var   000° 0 kt METAR LFBE 211830Z AUTO 00000KT CAVOK 27/21 Q1015 NOSIG
20:00
V
28 °C 10 km+ - 070°   070° 2 kt METAR LFBE 211800Z AUTO 07002KT CAVOK 28/20 Q1014 NOSIG
19:30
V
30 °C 10 km+ - 070°   070° 2 kt METAR LFBE 211730Z AUTO 07002KT CAVOK 30/20 Q1015 NOSIG
19:00
V
31 °C 10 km+ - 070°   070° 3 kt METAR LFBE 211700Z AUTO 07003KT 040V100 CAVOK 31/20 Q1015 NOSIG
18:30
V
31 °C 10 km+ - 070°   070° 5 kt METAR LFBE 211630Z AUTO 07005KT 030V100 CAVOK 31/20 Q1015 NOSIG
18:00
V
31 °C 10 km+ - 120°   120° 4 kt METAR LFBE 211600Z AUTO 12004KT 070V170 CAVOK 31/20 Q1015 NOSIG
17:30
V
32 °C 10 km+ - 100°   100° 3 kt METAR LFBE 211530Z AUTO 10003KT 040V160 CAVOK 32/19 Q1015 NOSIG
17:00
V
31 °C 10 km+ - Var   Var 3 kt METAR LFBE 211500Z AUTO VRB03KT CAVOK 31/19 Q1016 NOSIG
Starsze dane

Pobierz naszą aplikację

Łatwy dostęp do całej pogody lotniczej na telefonie komórkowym i tablecie.
Z wieloma funkcjami niedostępnymi na stronie internetowej, takimi jak wsparcie offline i osobista lista lotnisk.

My i osoby trzecie śledzimy twoje zachowanie w internecie na naszej stronie za pomocą plików cookie. Jeśli kontynuujesz, zakładamy, że zgadzasz się z naszą polityką plików cookie. Dowiedz się więcej